Terminal Aerodrome Forecast
Issued by NWS

Home | Current Version | Previous Version | Text Only | Print | Product List | Glossary On
Versions: 1 2 3 4 5 6 7 8 9 10 11 12 13 14 15 16 17 18
000
FTUS41 KGYX 312328
TAFLEB
TAF
KLEB 312328Z 0100/0124 33005KT P6SM SCT080
     FM010200 00000KT P6SM FEW080
     FM011400 02005KT P6SM SCT250
     FM011800 15005KT P6SM SCT250=

USA.gov is the U.S. government's official web portal to all federal, state and local government web resources and services.